Time,TemperatureF,DewpointF,PressureIn,WindDirection,WindDirectionDegrees,WindSpeedMPH,WindSpeedGustMPH,Humidity,HourlyPrecipIn,Conditions,Clouds,dailyrainin,SolarRadiationWatts/m^2,SoftwareType,DateUTC
2013-06-30 00:01:00,72.7,70.5,29.71,SSE,159,1.0,5.0,93,0.00,,,0.00,0.0,meteohub,2013-06-30 04:01:00,
2013-06-30 00:02:00,72.7,70.5,29.71,SSE,159,0.0,5.0,93,0.00,,,0.00,0.0,meteohub,2013-06-30 04:02:00,
2013-06-30 00:04:00,72.7,70.5,29.71,SSE,159,0.0,5.0,93,0.00,,,0.00,0.0,meteohub,2013-06-30 04:04:00,
2013-06-30 00:05:00,72.7,70.5,29.71,SSE,159,4.0,5.0,93,0.00,,,0.00,0.0,meteohub,2013-06-30 04:05:00,
2013-06-30 00:10:00,72.7,70.5,29.72,SSE,153,0.0,5.0,93,0.00,,,0.00,0.0,meteohub,2013-06-30 04:10:00,
2013-06-30 00:15:00,72.7,70.5,29.71,SSE,157,0.0,6.0,93,0.00,,,0.00,0.0,meteohub,2013-06-30 04:15:00,
2013-06-30 00:20:00,72.7,70.5,29.72,SE,144,4.0,6.0,93,0.00,,,0.00,0.0,meteohub,2013-06-30 04:20:00,
2013-06-30 00:25:00,72.7,70.5,29.72,SE,143,0.0,6.0,93,0.00,,,0.00,0.0,meteohub,2013-06-30 04:25:00,
2013-06-30 00:30:00,72.7,70.5,29.71,SE,143,2.0,6.0,93,0.00,,,0.00,0.0,meteohub,2013-06-30 04:30:00,
2013-06-30 00:36:00,72.7,70.5,29.71,SE,143,0.0,6.0,93,0.00,,,0.00,0.0,meteohub,2013-06-30 04:36:00,
2013-06-30 00:41:00,72.7,70.5,29.71,SE,143,0.0,6.0,93,0.00,,,0.00,0.0,meteohub,2013-06-30 04:41:00,
2013-06-30 00:46:00,72.7,70.5,29.72,SE,143,0.0,6.0,93,0.00,,,0.00,0.0,meteohub,2013-06-30 04:46:00,
2013-06-30 00:51:00,72.7,70.5,29.72,SE,143,2.0,4.0,93,0.00,,,0.00,0.0,meteohub,2013-06-30 04:51:00,
2013-06-30 00:56:00,72.7,70.5,29.72,SE,143,0.0,4.0,93,0.00,,,0.00,0.0,meteohub,2013-06-30 04:56:00,
2013-06-30 01:01:00,72.7,70.5,29.72,SE,143,4.0,4.0,93,0.00,,,0.00,0.0,meteohub,2013-06-30 05:01:00,
2013-06-30 01:06:00,72.5,70.3,29.72,SE,142,1.0,4.0,93,0.00,,,0.00,0.0,meteohub,2013-06-30 05:06:00,
2013-06-30 01:11:00,72.5,70.3,29.73,SE,142,0.0,5.0,93,0.00,,,0.00,0.0,meteohub,2013-06-30 05:11:00,
2013-06-30 01:17:00,72.3,70.2,29.72,SE,142,2.0,5.0,93,0.00,,,0.00,0.0,meteohub,2013-06-30 05:17:00,
2013-06-30 01:22:00,72.3,70.2,29.72,SSE,147,1.0,4.0,93,0.00,,,0.00,0.0,meteohub,2013-06-30 05:22:00,
2013-06-30 01:27:00,72.3,70.2,29.72,SSE,154,4.0,5.0,93,0.00,,,0.00,0.0,meteohub,2013-06-30 05:27:00,
2013-06-30 01:32:00,72.1,70.0,29.72,SSE,167,4.0,5.0,93,0.00,,,0.00,0.0,meteohub,2013-06-30 05:32:00,
2013-06-30 01:37:00,72.1,70.0,29.72,SSE,163,0.0,5.0,93,0.00,,,0.00,0.0,meteohub,2013-06-30 05:37:00,
2013-06-30 01:42:00,72.1,70.3,29.72,SE,142,0.0,5.0,94,0.00,,,0.00,0.0,meteohub,2013-06-30 05:42:00,
2013-06-30 01:47:00,72.0,69.8,29.72,SE,142,0.0,5.0,93,0.00,,,0.00,0.0,meteohub,2013-06-30 05:47:00,
2013-06-30 01:52:00,71.8,70.0,29.72,SE,142,0.0,5.0,94,0.00,,,0.00,0.0,meteohub,2013-06-30 05:52:00,
2013-06-30 01:57:00,71.8,70.0,29.73,SE,142,0.0,1.0,94,0.00,,,0.00,0.0,meteohub,2013-06-30 05:57:00,
2013-06-30 02:02:00,71.4,69.6,29.73,SE,142,0.0,1.0,94,0.00,,,0.00,0.0,meteohub,2013-06-30 06:02:00,
2013-06-30 02:07:00,71.4,69.6,29.73,SE,142,1.0,4.0,94,0.00,,,0.00,0.0,meteohub,2013-06-30 06:07:00,
2013-06-30 02:12:00,71.2,69.4,29.73,SE,142,0.0,4.0,94,0.00,,,0.00,0.0,meteohub,2013-06-30 06:12:00,
2013-06-30 02:17:00,71.2,69.4,29.73,SE,142,0.0,4.0,94,0.00,,,0.00,0.0,meteohub,2013-06-30 06:17:00,
2013-06-30 02:22:00,71.2,69.4,29.73,SE,142,0.0,4.0,94,0.00,,,0.00,0.0,meteohub,2013-06-30 06:22:00,
2013-06-30 02:27:00,71.1,69.3,29.73,SE,142,0.0,2.0,94,0.00,,,0.00,0.0,meteohub,2013-06-30 06:27:00,
2013-06-30 02:32:00,71.1,69.6,29.73,SE,142,0.0,2.0,95,0.00,,,0.00,0.0,meteohub,2013-06-30 06:32:00,
2013-06-30 02:37:00,71.1,69.6,29.74,SE,142,0.0,2.0,95,0.00,,,0.00,0.0,meteohub,2013-06-30 06:37:00,
2013-06-30 02:42:00,70.9,69.4,29.74,SE,142,0.0,2.0,95,0.00,,,0.00,0.0,meteohub,2013-06-30 06:42:00,
2013-06-30 02:47:00,70.9,69.4,29.74,SE,142,0.0,1.0,95,0.00,,,0.00,0.0,meteohub,2013-06-30 06:47:00,
2013-06-30 02:52:00,70.9,69.4,29.73,SE,142,0.0,1.0,95,0.00,,,0.00,0.0,meteohub,2013-06-30 06:52:00,
2013-06-30 02:57:00,70.9,69.4,29.73,SE,142,0.0,1.0,95,0.00,,,0.00,0.0,meteohub,2013-06-30 06:57:00,
2013-06-30 03:02:00,70.9,69.4,29.73,SE,142,0.0,1.0,95,0.00,,,0.00,0.0,meteohub,2013-06-30 07:02:00,
2013-06-30 03:07:00,70.9,69.4,29.73,SE,142,0.0,1.0,95,0.00,,,0.00,0.0,meteohub,2013-06-30 07:07:00,
2013-06-30 03:12:00,70.5,69.1,29.73,SE,142,0.0,0.0,95,0.00,,,0.00,0.0,meteohub,2013-06-30 07:12:00,
2013-06-30 03:18:00,70.3,68.9,29.73,SE,142,0.0,0.0,95,0.00,,,0.00,0.0,meteohub,2013-06-30 07:18:00,
2013-06-30 03:23:00,70.3,68.9,29.73,SE,142,0.0,0.0,95,0.00,,,0.00,0.0,meteohub,2013-06-30 07:23:00,
2013-06-30 03:28:00,70.2,68.7,29.73,SE,142,0.0,0.0,95,0.00,,,0.00,0.0,meteohub,2013-06-30 07:28:00,
2013-06-30 03:33:00,70.2,68.7,29.73,SE,142,0.0,0.0,95,0.00,,,0.00,0.0,meteohub,2013-06-30 07:33:00,
2013-06-30 03:38:00,70.0,68.5,29.73,SE,142,0.0,0.0,95,0.00,,,0.00,0.0,meteohub,2013-06-30 07:38:00,
2013-06-30 03:43:00,69.8,68.4,29.73,SE,142,0.0,0.0,95,0.00,,,0.00,0.0,meteohub,2013-06-30 07:43:00,
2013-06-30 03:48:00,69.6,68.2,29.73,SE,142,0.0,0.0,95,0.00,,,0.00,0.0,meteohub,2013-06-30 07:48:00,
2013-06-30 03:54:00,69.4,68.0,29.73,SE,142,0.0,0.0,95,0.00,,,0.00,0.0,meteohub,2013-06-30 07:54:00,
2013-06-30 03:59:00,69.4,68.0,29.73,SE,142,0.0,0.0,95,0.00,,,0.00,0.0,meteohub,2013-06-30 07:59:00,
2013-06-30 04:04:00,69.3,67.8,29.73,SE,142,0.0,0.0,95,0.00,,,0.00,0.0,meteohub,2013-06-30 08:04:00,
2013-06-30 04:09:00,69.3,68.0,29.73,SE,142,0.0,0.0,96,0.00,,,0.00,0.0,meteohub,2013-06-30 08:09:00,
2013-06-30 04:14:00,69.1,67.8,29.73,SE,142,0.0,0.0,96,0.00,,,0.00,0.0,meteohub,2013-06-30 08:14:00,
2013-06-30 04:19:00,69.1,67.8,29.73,SE,142,0.0,0.0,96,0.00,,,0.00,0.0,meteohub,2013-06-30 08:19:00,
2013-06-30 04:24:00,69.1,67.8,29.74,SE,142,0.0,0.0,96,0.00,,,0.00,0.0,meteohub,2013-06-30 08:24:00,
2013-06-30 04:30:00,69.1,67.8,29.74,SE,142,0.0,0.0,96,0.00,,,0.00,0.0,meteohub,2013-06-30 08:30:00,
2013-06-30 04:35:00,68.9,67.6,29.74,SE,142,0.0,0.0,96,0.00,,,0.00,0.0,meteohub,2013-06-30 08:35:00,
2013-06-30 04:40:00,68.9,67.6,29.74,SE,142,0.0,0.0,96,0.00,,,0.00,0.0,meteohub,2013-06-30 08:40:00,
2013-06-30 04:45:00,68.7,67.5,29.74,SE,142,0.0,0.0,96,0.00,,,0.00,0.0,meteohub,2013-06-30 08:45:00,
2013-06-30 04:50:00,68.7,67.5,29.75,SE,142,0.0,0.0,96,0.00,,,0.00,0.0,meteohub,2013-06-30 08:50:00,
2013-06-30 04:55:00,68.7,67.5,29.74,SE,142,0.0,1.0,96,0.00,,,0.00,0.0,meteohub,2013-06-30 08:55:00,
2013-06-30 05:00:00,68.7,67.5,29.75,SE,142,0.0,1.0,96,0.00,,,0.00,0.0,meteohub,2013-06-30 09:00:00,
2013-06-30 05:06:00,68.7,67.5,29.75,SE,142,0.0,1.0,96,0.00,,,0.00,0.0,meteohub,2013-06-30 09:06:00,
2013-06-30 05:11:00,68.7,67.5,29.75,SE,142,0.0,1.0,96,0.00,,,0.00,0.0,meteohub,2013-06-30 09:11:00,
2013-06-30 05:16:00,68.5,67.3,29.75,SE,142,0.0,1.0,96,0.00,,,0.00,0.0,meteohub,2013-06-30 09:16:00,
2013-06-30 05:21:00,68.5,67.3,29.75,SE,142,0.0,0.0,96,0.00,,,0.00,0.0,meteohub,2013-06-30 09:21:00,
2013-06-30 05:26:00,68.5,67.3,29.75,SE,142,0.0,0.0,96,0.00,,,0.00,0.0,meteohub,2013-06-30 09:26:00,
2013-06-30 05:31:00,68.5,67.3,29.75,SE,142,0.0,0.0,96,0.00,,,0.00,5.0,meteohub,2013-06-30 09:31:00,
2013-06-30 05:36:00,68.4,67.1,29.75,SE,142,0.0,0.0,96,0.00,,,0.00,11.0,meteohub,2013-06-30 09:36:00,
2013-06-30 05:42:00,68.5,67.3,29.76,SE,142,0.0,0.0,96,0.00,,,0.00,11.0,meteohub,2013-06-30 09:42:00,
2013-06-30 05:47:00,68.5,67.3,29.75,SE,142,0.0,0.0,96,0.00,,,0.00,18.0,meteohub,2013-06-30 09:47:00,
2013-06-30 05:52:00,68.4,67.1,29.76,SE,142,0.0,0.0,96,0.00,,,0.00,21.0,meteohub,2013-06-30 09:52:00,
2013-06-30 05:57:00,68.5,67.3,29.76,SE,142,0.0,0.0,96,0.00,,,0.00,28.0,meteohub,2013-06-30 09:57:00,
2013-06-30 06:02:00,68.5,67.3,29.77,SE,142,0.0,0.0,96,0.00,,,0.00,28.0,meteohub,2013-06-30 10:02:00,
2013-06-30 06:07:00,68.7,67.5,29.77,SE,142,0.0,0.0,96,0.00,,,0.00,40.0,meteohub,2013-06-30 10:07:00,
2013-06-30 06:12:00,68.9,67.6,29.78,SE,142,0.0,0.0,96,0.00,,,0.00,49.0,meteohub,2013-06-30 10:12:00,
2013-06-30 06:17:00,69.1,67.8,29.78,SE,142,0.0,0.0,96,0.00,,,0.00,44.0,meteohub,2013-06-30 10:17:00,
2013-06-30 06:22:00,69.3,68.4,29.78,SE,142,0.0,0.0,97,0.00,,,0.00,54.0,meteohub,2013-06-30 10:22:00,
2013-06-30 06:27:00,69.6,68.4,29.78,SE,142,0.0,0.0,96,0.00,,,0.00,60.0,meteohub,2013-06-30 10:27:00,
2013-06-30 06:32:00,70.0,69.1,29.78,SE,142,0.0,0.0,97,0.00,,,0.00,60.0,meteohub,2013-06-30 10:32:00,
2013-06-30 06:37:00,70.2,68.9,29.79,SE,142,0.0,1.0,96,0.00,,,0.00,70.0,meteohub,2013-06-30 10:37:00,
2013-06-30 06:42:00,70.2,68.9,29.79,SE,142,0.0,1.0,96,0.00,,,0.00,76.0,meteohub,2013-06-30 10:42:00,
2013-06-30 06:47:00,70.3,69.1,29.79,SE,142,0.0,1.0,96,0.00,,,0.00,84.0,meteohub,2013-06-30 10:47:00,
2013-06-30 06:52:00,70.5,69.3,29.80,SE,142,2.0,2.0,96,0.00,,,0.00,63.0,meteohub,2013-06-30 10:52:00,
2013-06-30 06:57:00,70.7,69.4,29.80,SE,142,0.0,4.0,96,0.00,,,0.00,65.0,meteohub,2013-06-30 10:57:00,
2013-06-30 07:02:00,70.9,69.6,29.80,SE,142,0.0,4.0,96,0.00,,,0.00,81.0,meteohub,2013-06-30 11:02:00,
2013-06-30 07:07:00,70.9,69.6,29.80,SE,142,1.0,4.0,96,0.00,,,0.00,93.0,meteohub,2013-06-30 11:07:00,
2013-06-30 07:12:00,71.2,70.0,29.80,SE,142,0.0,4.0,96,0.00,,,0.00,104.0,meteohub,2013-06-30 11:12:00,
2013-06-30 07:17:00,71.4,70.2,29.80,SE,142,0.0,4.0,96,0.00,,,0.00,91.0,meteohub,2013-06-30 11:17:00,
2013-06-30 07:22:00,71.8,70.5,29.81,SE,142,2.0,4.0,96,0.00,,,0.00,144.0,meteohub,2013-06-30 11:22:00,
2013-06-30 07:27:00,71.8,70.5,29.81,SE,142,4.0,4.0,96,0.00,,,0.00,127.0,meteohub,2013-06-30 11:27:00,
2013-06-30 07:32:00,72.0,70.7,29.81,SE,142,2.0,5.0,96,0.00,,,0.00,107.0,meteohub,2013-06-30 11:32:00,
2013-06-30 07:37:00,71.8,70.3,29.81,South,182,1.0,5.0,95,0.00,,,0.00,127.0,meteohub,2013-06-30 11:37:00,
2013-06-30 07:42:00,72.0,70.5,29.81,SSE,152,0.0,5.0,95,0.00,,,0.00,167.0,meteohub,2013-06-30 11:42:00,
2013-06-30 07:47:00,72.0,70.5,29.81,SSE,153,2.0,5.0,95,0.00,,,0.00,163.0,meteohub,2013-06-30 11:47:00,
2013-06-30 07:52:00,72.0,70.5,29.82,South,171,0.0,6.0,95,0.00,,,0.00,134.0,meteohub,2013-06-30 11:52:00,
2013-06-30 07:57:00,71.8,70.3,29.82,South,175,4.0,7.0,95,0.00,,,0.00,109.0,meteohub,2013-06-30 11:57:00,
2013-06-30 08:02:00,71.8,70.3,29.82,South,180,0.0,7.0,95,0.00,,,0.00,102.0,meteohub,2013-06-30 12:02:00,
2013-06-30 08:07:00,72.1,70.7,29.82,South,178,0.0,7.0,95,0.00,,,0.00,90.0,meteohub,2013-06-30 12:07:00,
2013-06-30 08:12:00,72.1,70.7,29.82,SSE,162,0.0,6.0,95,0.00,,,0.00,121.0,meteohub,2013-06-30 12:12:00,
2013-06-30 08:17:00,72.1,70.7,29.82,South,172,0.0,5.0,95,0.00,,,0.00,139.0,meteohub,2013-06-30 12:17:00,
2013-06-30 08:22:00,72.1,70.7,29.83,SE,146,4.0,5.0,95,0.00,,,0.00,171.0,meteohub,2013-06-30 12:22:00,
2013-06-30 08:27:00,72.5,71.1,29.83,SSE,165,6.0,6.0,95,0.00,,,0.00,109.0,meteohub,2013-06-30 12:27:00,
2013-06-30 08:32:00,72.3,70.5,29.83,ESE,123,4.0,6.0,94,0.00,,,0.00,130.0,meteohub,2013-06-30 12:32:00,
2013-06-30 08:37:00,72.1,70.3,29.83,SSE,161,4.0,7.0,94,0.00,,,0.00,135.0,meteohub,2013-06-30 12:37:00,
2013-06-30 08:42:00,72.1,70.3,29.83,ESE,115,1.0,7.0,94,0.00,,,0.00,171.0,meteohub,2013-06-30 12:42:00,
2013-06-30 08:47:00,72.3,70.5,29.83,SSW,211,3.0,7.0,94,0.00,,,0.00,155.0,meteohub,2013-06-30 12:47:00,
2013-06-30 08:52:00,72.3,70.5,29.83,SSE,161,4.0,7.0,94,0.00,,,0.00,163.0,meteohub,2013-06-30 12:52:00,
2013-06-30 08:57:00,72.1,70.3,29.83,SSE,157,4.0,7.0,94,0.00,,,0.00,142.0,meteohub,2013-06-30 12:57:00,
2013-06-30 09:03:00,72.3,70.9,29.83,SE,128,7.0,8.0,95,0.00,,,0.00,137.0,meteohub,2013-06-30 13:03:00,
2013-06-30 09:08:00,72.3,70.5,29.83,SE,137,7.0,8.0,94,0.00,,,0.00,162.0,meteohub,2013-06-30 13:08:00,
2013-06-30 09:13:00,72.7,70.9,29.83,SE,144,0.0,8.0,94,0.00,,,0.00,169.0,meteohub,2013-06-30 13:13:00,
2013-06-30 09:18:00,72.5,70.7,29.83,South,177,7.0,8.0,94,0.00,,,0.00,193.0,meteohub,2013-06-30 13:18:00,
2013-06-30 09:23:00,72.3,70.5,29.83,SSE,165,1.0,7.0,94,0.00,,,0.00,206.0,meteohub,2013-06-30 13:23:00,
2013-06-30 09:28:00,72.3,70.5,29.83,SSE,163,4.0,7.0,94,0.00,,,0.00,146.0,meteohub,2013-06-30 13:28:00,
2013-06-30 09:33:00,72.3,70.5,29.83,SE,128,1.0,7.0,94,0.00,,,0.00,174.0,meteohub,2013-06-30 13:33:00,
2013-06-30 09:38:00,72.5,70.7,29.83,South,171,1.0,7.0,94,0.00,,,0.00,227.0,meteohub,2013-06-30 13:38:00,
2013-06-30 09:44:00,72.7,70.5,29.83,South,188,1.0,7.0,93,0.00,,,0.00,195.0,meteohub,2013-06-30 13:44:00,
2013-06-30 09:49:00,72.3,70.2,29.83,South,173,0.0,7.0,93,0.00,,,0.00,230.0,meteohub,2013-06-30 13:49:00,
2013-06-30 09:54:00,72.9,70.7,29.83,SSE,165,4.0,7.0,93,0.00,,,0.00,232.0,meteohub,2013-06-30 13:54:00,
2013-06-30 09:59:00,72.9,71.1,29.83,SSE,147,0.0,7.0,94,0.00,,,0.00,237.0,meteohub,2013-06-30 13:59:00,
2013-06-30 10:04:00,72.9,70.7,29.83,SE,140,1.0,7.0,93,0.00,,,0.00,167.0,meteohub,2013-06-30 14:04:00,
2013-06-30 10:09:00,72.7,70.5,29.83,SSE,162,4.0,7.0,93,0.00,,,0.00,200.0,meteohub,2013-06-30 14:09:00,
2013-06-30 10:14:00,72.5,70.3,29.83,SE,128,5.0,8.0,93,0.00,,,0.00,214.0,meteohub,2013-06-30 14:14:00,
2013-06-30 10:20:00,72.5,70.3,29.84,South,181,3.0,8.0,93,0.00,,,0.00,220.0,meteohub,2013-06-30 14:20:00,
2013-06-30 10:25:00,72.7,70.5,29.84,SSE,154,4.0,9.0,93,0.00,,,0.00,200.0,meteohub,2013-06-30 14:25:00,
2013-06-30 10:30:00,72.7,70.5,29.84,SE,126,7.0,9.0,93,0.00,,,0.00,192.0,meteohub,2013-06-30 14:30:00,
2013-06-30 10:35:00,72.9,70.7,29.84,South,171,0.0,8.0,93,0.00,,,0.00,225.0,meteohub,2013-06-30 14:35:00,
2013-06-30 10:40:00,73.2,71.1,29.84,SE,126,6.0,8.0,93,0.00,,,0.00,269.0,meteohub,2013-06-30 14:40:00,
2013-06-30 10:45:00,73.6,71.4,29.84,SSE,155,4.0,8.0,93,0.00,,,0.00,267.0,meteohub,2013-06-30 14:45:00,
2013-06-30 10:50:00,73.6,71.1,29.84,SE,144,7.0,8.0,92,0.00,,,0.00,167.0,meteohub,2013-06-30 14:50:00,
2013-06-30 10:56:00,73.2,70.7,29.85,SSE,159,4.0,7.0,92,0.00,,,0.00,232.0,meteohub,2013-06-30 14:56:00,
2013-06-30 11:01:00,73.4,70.9,29.85,SSE,164,2.0,7.0,92,0.00,,,0.00,309.0,meteohub,2013-06-30 15:01:00,
2013-06-30 11:06:00,73.2,71.1,29.85,SE,138,0.0,7.0,93,0.00,,,0.00,418.0,meteohub,2013-06-30 15:06:00,
2013-06-30 11:11:00,73.9,71.4,29.85,SSE,159,0.0,7.0,92,0.00,,,0.00,343.0,meteohub,2013-06-30 15:11:00,
2013-06-30 11:16:00,73.9,71.4,29.84,South,179,0.0,6.0,92,0.00,,,0.00,434.0,meteohub,2013-06-30 15:16:00,
2013-06-30 11:21:00,74.5,71.6,29.85,South,176,2.0,5.0,91,0.00,,,0.00,471.0,meteohub,2013-06-30 15:21:00,
2013-06-30 11:26:00,74.8,72.0,29.85,SE,134,1.0,5.0,91,0.00,,,0.00,260.0,meteohub,2013-06-30 15:26:00,
2013-06-30 11:32:00,75.0,72.0,29.84,SE,137,2.0,6.0,90,0.00,,,0.00,287.0,meteohub,2013-06-30 15:32:00,
2013-06-30 11:37:00,75.6,72.5,29.84,SE,131,6.0,6.0,90,0.00,,,0.00,271.0,meteohub,2013-06-30 15:37:00,
2013-06-30 11:42:00,75.6,72.5,29.84,SSE,153,4.0,7.0,90,0.00,,,0.00,304.0,meteohub,2013-06-30 15:42:00,
2013-06-30 11:47:00,75.4,72.3,29.84,South,173,4.0,8.0,90,0.00,,,0.00,606.0,meteohub,2013-06-30 15:47:00,
2013-06-30 11:52:00,75.7,72.7,29.84,SSE,153,9.0,9.0,90,0.00,,,0.00,789.0,meteohub,2013-06-30 15:52:00,
2013-06-30 11:57:00,76.1,72.9,29.85,ESE,110,0.0,11.0,90,0.00,,,0.00,396.0,meteohub,2013-06-30 15:57:00,
2013-06-30 12:02:00,77.0,73.2,29.85,SSW,205,5.0,11.0,88,0.00,,,0.00,439.0,meteohub,2013-06-30 16:02:00,
2013-06-30 12:07:00,76.3,72.5,29.85,South,171,0.0,9.0,88,0.00,,,0.00,490.0,meteohub,2013-06-30 16:07:00,
2013-06-30 12:12:00,77.0,73.6,29.85,ESE,121,1.0,8.0,89,0.00,,,0.00,295.0,meteohub,2013-06-30 16:12:00,
2013-06-30 12:17:00,77.2,73.0,29.85,SSE,159,4.0,8.0,87,0.00,,,0.00,315.0,meteohub,2013-06-30 16:17:00,
2013-06-30 12:22:00,77.2,73.4,29.84,South,178,0.0,7.0,88,0.00,,,0.00,418.0,meteohub,2013-06-30 16:22:00,
2013-06-30 12:27:00,77.4,73.2,29.84,ESE,115,6.0,7.0,87,0.00,,,0.00,431.0,meteohub,2013-06-30 16:27:00,
2013-06-30 12:32:00,77.7,72.9,29.84,SE,128,8.0,8.0,85,0.00,,,0.00,387.0,meteohub,2013-06-30 16:32:00,
2013-06-30 12:37:00,76.8,72.7,29.84,South,177,9.0,9.0,87,0.00,,,0.00,339.0,meteohub,2013-06-30 16:37:00,
2013-06-30 12:42:00,76.8,73.0,29.84,SE,141,5.0,11.0,88,0.00,,,0.00,258.0,meteohub,2013-06-30 16:42:00,
2013-06-30 12:47:00,77.2,73.4,29.84,SE,141,4.0,11.0,88,0.00,,,0.00,220.0,meteohub,2013-06-30 16:47:00,
2013-06-30 12:52:00,76.6,72.9,29.85,East,100,4.0,11.0,88,0.00,,,0.00,214.0,meteohub,2013-06-30 16:52:00,
2013-06-30 12:57:00,76.6,72.9,29.84,East,89,4.0,8.0,88,0.00,,,0.00,378.0,meteohub,2013-06-30 16:57:00,
2013-06-30 13:02:00,76.5,73.0,29.85,ESE,109,8.0,11.0,89,0.00,,,0.00,584.0,meteohub,2013-06-30 17:02:00,
2013-06-30 13:07:00,76.8,73.4,29.85,SE,128,8.0,12.0,89,0.00,,,0.00,287.0,meteohub,2013-06-30 17:07:00,
2013-06-30 13:12:00,77.2,73.4,29.85,SSE,161,4.0,12.0,88,0.00,,,0.00,197.0,meteohub,2013-06-30 17:12:00,
2013-06-30 13:17:00,76.6,72.9,29.85,ESE,111,4.0,12.0,88,0.00,,,0.00,192.0,meteohub,2013-06-30 17:17:00,
2013-06-30 13:22:00,76.1,72.9,29.85,South,186,7.0,13.0,90,0.00,,,0.00,163.0,meteohub,2013-06-30 17:22:00,
2013-06-30 13:27:00,75.9,72.9,29.85,South,175,6.0,13.0,90,0.00,,,0.00,178.0,meteohub,2013-06-30 17:27:00,
2013-06-30 13:32:00,75.7,72.9,29.85,SSE,148,5.0,11.0,91,0.00,,,0.00,139.0,meteohub,2013-06-30 17:32:00,
2013-06-30 13:37:00,75.2,72.3,29.86,SE,127,11.0,11.0,91,0.00,,,0.00,188.0,meteohub,2013-06-30 17:37:00,
2013-06-30 13:42:00,74.5,72.0,29.86,SSE,155,4.0,12.0,92,0.00,,,0.00,193.0,meteohub,2013-06-30 17:42:00,
2013-06-30 13:47:00,73.9,71.8,29.86,SSE,161,6.0,12.0,93,0.00,,,0.00,155.0,meteohub,2013-06-30 17:47:00,
2013-06-30 13:52:00,73.8,71.6,29.86,SSW,203,3.0,12.0,93,0.00,,,0.00,134.0,meteohub,2013-06-30 17:52:00,
2013-06-30 13:57:00,73.2,71.1,29.86,SE,141,5.0,11.0,93,0.00,,,0.00,135.0,meteohub,2013-06-30 17:57:00,
2013-06-30 14:02:00,73.0,71.2,29.86,SE,146,1.0,12.0,94,0.00,,,0.00,176.0,meteohub,2013-06-30 18:02:00,
2013-06-30 14:07:00,73.0,71.2,29.86,SSE,162,7.0,12.0,94,0.00,,,0.00,158.0,meteohub,2013-06-30 18:07:00,
2013-06-30 14:12:00,73.0,71.2,29.86,SSE,155,0.0,12.0,94,0.00,,,0.00,192.0,meteohub,2013-06-30 18:12:00,
2013-06-30 14:17:00,73.0,71.2,29.86,SSE,162,1.0,11.0,94,0.00,,,0.00,195.0,meteohub,2013-06-30 18:17:00,
2013-06-30 14:22:00,73.0,71.2,29.86,South,186,4.0,11.0,94,0.00,,,0.00,130.0,meteohub,2013-06-30 18:22:00,
2013-06-30 14:27:00,73.2,71.4,29.86,SSE,167,4.0,11.0,94,0.00,,,0.00,114.0,meteohub,2013-06-30 18:27:00,
2013-06-30 14:33:00,73.2,71.4,29.86,SSW,207,0.0,11.0,94,0.00,,,0.00,158.0,meteohub,2013-06-30 18:33:00,
2013-06-30 14:38:00,73.4,71.6,29.86,SSE,164,7.0,11.0,94,0.00,,,0.00,118.0,meteohub,2013-06-30 18:38:00,
2013-06-30 14:43:00,73.4,71.2,29.86,SSE,150,2.0,11.0,93,0.00,,,0.00,141.0,meteohub,2013-06-30 18:43:00,
2013-06-30 14:48:00,73.6,71.4,29.86,South,188,10.0,11.0,93,0.00,,,0.00,183.0,meteohub,2013-06-30 18:48:00,
2013-06-30 14:53:00,73.6,71.4,29.86,South,169,9.0,11.0,93,0.00,,,0.00,181.0,meteohub,2013-06-30 18:53:00,
2013-06-30 14:58:00,73.8,71.6,29.86,South,186,5.0,13.0,93,0.00,,,0.00,151.0,meteohub,2013-06-30 18:58:00,
2013-06-30 15:03:00,73.9,71.8,29.86,South,171,1.0,13.0,93,0.00,,,0.00,179.0,meteohub,2013-06-30 19:03:00,
2013-06-30 15:09:00,74.1,71.6,29.86,SSE,152,4.0,11.0,92,0.00,,,0.00,230.0,meteohub,2013-06-30 19:09:00,
2013-06-30 15:14:00,74.5,71.6,29.86,SSE,149,7.0,13.0,91,0.00,,,0.00,213.0,meteohub,2013-06-30 19:14:00,
2013-06-30 15:19:00,74.5,71.6,29.86,South,175,6.0,13.0,91,0.00,,,0.00,114.0,meteohub,2013-06-30 19:19:00,
2013-06-30 15:24:00,74.5,71.4,29.85,SE,144,2.0,13.0,90,0.00,,,0.00,123.0,meteohub,2013-06-30 19:24:00,
2013-06-30 15:29:00,74.5,71.4,29.86,South,186,3.0,12.0,90,0.00,,,0.00,141.0,meteohub,2013-06-30 19:29:00,
2013-06-30 15:34:00,74.5,71.4,29.85,SSE,148,5.0,12.0,90,0.00,,,0.00,148.0,meteohub,2013-06-30 19:34:00,
2013-06-30 15:40:00,74.3,71.2,29.86,South,184,5.0,12.0,90,0.00,,,0.00,125.0,meteohub,2013-06-30 19:40:00,
2013-06-30 15:45:00,74.1,71.1,29.86,SE,126,4.0,10.0,90,0.00,,,0.00,121.0,meteohub,2013-06-30 19:45:00,
2013-06-30 15:50:00,74.3,71.2,29.86,South,187,2.0,8.0,90,0.00,,,0.00,95.0,meteohub,2013-06-30 19:50:00,
2013-06-30 15:55:00,74.3,71.2,29.86,South,184,4.0,8.0,90,0.00,,,0.00,49.0,meteohub,2013-06-30 19:55:00,
2013-06-30 16:00:00,73.9,70.9,29.86,SSE,151,6.0,8.0,90,0.00,,,0.00,58.0,meteohub,2013-06-30 20:00:00,
2013-06-30 16:05:00,73.9,71.1,29.86,South,178,5.0,8.0,91,0.00,,,0.00,70.0,meteohub,2013-06-30 20:05:00,
2013-06-30 16:10:00,73.9,71.1,29.86,SSE,152,4.0,8.0,91,0.00,,,0.00,65.0,meteohub,2013-06-30 20:10:00,
2013-06-30 16:16:00,74.1,71.2,29.86,South,177,5.0,7.0,91,0.00,,,0.00,58.0,meteohub,2013-06-30 20:16:00,
2013-06-30 16:21:00,73.9,71.1,29.87,SE,141,7.0,10.0,91,0.00,,,0.00,81.0,meteohub,2013-06-30 20:21:00,
2013-06-30 16:26:00,73.9,71.1,29.87,SSW,196,4.0,10.0,91,0.00,,,0.00,72.0,meteohub,2013-06-30 20:26:00,
2013-06-30 16:31:00,73.9,71.1,29.87,SSE,159,5.0,10.0,91,0.00,,,0.00,79.0,meteohub,2013-06-30 20:31:00,
2013-06-30 16:36:00,73.9,71.1,29.87,SSW,194,7.0,13.0,91,0.00,,,0.00,86.0,meteohub,2013-06-30 20:36:00,
2013-06-30 16:42:00,73.9,71.1,29.86,SSE,167,2.0,13.0,91,0.00,,,0.00,118.0,meteohub,2013-06-30 20:42:00,
2013-06-30 16:47:00,74.1,71.2,29.86,SE,142,4.0,13.0,91,0.00,,,0.00,88.0,meteohub,2013-06-30 20:47:00,
2013-06-30 16:52:00,74.1,71.2,29.86,South,172,4.0,11.0,91,0.00,,,0.00,120.0,meteohub,2013-06-30 20:52:00,
2013-06-30 16:57:00,74.1,71.2,29.87,SSW,197,8.0,9.0,91,0.00,,,0.00,60.0,meteohub,2013-06-30 20:57:00,
2013-06-30 17:02:00,73.9,71.1,29.87,South,188,4.0,13.0,91,0.00,,,0.00,62.0,meteohub,2013-06-30 21:02:00,
2013-06-30 17:07:00,73.9,71.1,29.87,South,182,4.0,13.0,91,0.00,,,0.00,54.0,meteohub,2013-06-30 21:07:00,
2013-06-30 17:12:00,73.9,71.1,29.87,South,175,4.0,13.0,91,0.00,,,0.00,32.0,meteohub,2013-06-30 21:12:00,
2013-06-30 17:17:00,73.8,70.9,29.86,SSE,155,5.0,10.0,91,0.00,,,0.00,54.0,meteohub,2013-06-30 21:17:00,
2013-06-30 17:22:00,73.8,70.9,29.87,SE,146,2.0,10.0,91,0.00,,,0.00,54.0,meteohub,2013-06-30 21:22:00,
2013-06-30 17:27:00,73.8,70.9,29.87,SSE,163,4.0,6.0,91,0.00,,,0.00,47.0,meteohub,2013-06-30 21:27:00,
2013-06-30 17:32:00,73.8,70.9,29.87,SSE,160,4.0,6.0,91,0.00,,,0.00,62.0,meteohub,2013-06-30 21:32:00,
2013-06-30 17:37:00,73.8,70.9,29.87,SSE,167,4.0,7.0,91,0.00,,,0.00,53.0,meteohub,2013-06-30 21:37:00,
2013-06-30 17:42:00,73.6,70.7,29.87,South,178,0.0,7.0,91,0.00,,,0.00,47.0,meteohub,2013-06-30 21:42:00,
2013-06-30 17:47:00,73.6,71.1,29.87,South,190,4.0,8.0,92,0.00,,,0.00,65.0,meteohub,2013-06-30 21:47:00,
2013-06-30 17:52:00,73.2,70.7,29.87,SE,136,4.0,8.0,92,0.00,,,0.00,40.0,meteohub,2013-06-30 21:52:00,
2013-06-30 17:57:00,73.2,70.7,29.87,South,185,2.0,8.0,92,0.00,,,0.00,47.0,meteohub,2013-06-30 21:57:00,
2013-06-30 18:02:00,73.0,70.9,29.87,SSE,149,4.0,8.0,93,0.00,,,0.00,49.0,meteohub,2013-06-30 22:02:00,
2013-06-30 18:07:00,73.0,70.9,29.87,South,184,0.0,8.0,93,0.00,,,0.00,21.0,meteohub,2013-06-30 22:07:00,
2013-06-30 18:12:00,73.0,70.9,29.87,South,184,2.0,8.0,93,0.00,,,0.00,16.0,meteohub,2013-06-30 22:12:00,
2013-06-30 18:17:00,72.9,70.7,29.88,South,178,1.0,6.0,93,0.00,,,0.00,25.0,meteohub,2013-06-30 22:17:00,
2013-06-30 18:22:00,72.9,71.1,29.88,South,186,1.0,5.0,94,0.00,,,0.00,28.0,meteohub,2013-06-30 22:22:00,
2013-06-30 18:27:00,73.0,71.2,29.88,South,180,1.0,5.0,94,0.00,,,0.00,40.0,meteohub,2013-06-30 22:27:00,
2013-06-30 18:32:00,72.9,71.1,29.88,SSE,152,0.0,7.0,94,0.00,,,0.00,63.0,meteohub,2013-06-30 22:32:00,
2013-06-30 18:37:00,73.0,71.2,29.88,SE,136,0.0,7.0,94,0.00,,,0.00,65.0,meteohub,2013-06-30 22:37:00,
2013-06-30 18:42:00,73.2,71.1,29.88,SSE,159,1.0,6.0,93,0.00,,,0.00,40.0,meteohub,2013-06-30 22:42:00,
2013-06-30 18:47:00,73.2,71.1,29.88,SSE,159,1.0,7.0,93,0.00,,,0.00,28.0,meteohub,2013-06-30 22:47:00,
2013-06-30 18:52:00,73.2,71.1,29.89,SSW,196,2.0,7.0,93,0.00,,,0.00,14.0,meteohub,2013-06-30 22:52:00,
2013-06-30 18:57:00,73.2,71.1,29.89,SSW,195,0.0,7.0,93,0.00,,,0.00,26.0,meteohub,2013-06-30 22:57:00,
2013-06-30 19:02:00,73.2,71.1,29.89,SE,146,5.0,5.0,93,0.00,,,0.00,28.0,meteohub,2013-06-30 23:02:00,
2013-06-30 19:07:00,73.0,70.9,29.89,SE,130,1.0,6.0,93,0.00,,,0.00,33.0,meteohub,2013-06-30 23:07:00,
2013-06-30 19:12:00,73.0,70.9,29.89,SE,140,1.0,6.0,93,0.00,,,0.00,18.0,meteohub,2013-06-30 23:12:00,
2013-06-30 19:17:00,72.9,70.7,29.89,SSE,161,4.0,6.0,93,0.00,,,0.00,37.0,meteohub,2013-06-30 23:17:00,
2013-06-30 19:22:00,73.0,70.9,29.89,SSE,161,0.0,6.0,93,0.00,,,0.00,60.0,meteohub,2013-06-30 23:22:00,
2013-06-30 19:27:00,72.9,70.7,29.88,SSE,161,0.0,6.0,93,0.00,,,0.00,56.0,meteohub,2013-06-30 23:27:00,
2013-06-30 19:32:00,72.9,71.1,29.88,SSE,161,0.0,5.0,94,0.00,,,0.00,49.0,meteohub,2013-06-30 23:32:00,
2013-06-30 19:37:00,73.0,71.2,29.89,SSE,161,0.0,4.0,94,0.00,,,0.00,35.0,meteohub,2013-06-30 23:37:00,
2013-06-30 19:42:00,73.0,71.2,29.89,SSE,161,2.0,2.0,94,0.00,,,0.00,21.0,meteohub,2013-06-30 23:42:00,
2013-06-30 19:47:00,73.0,71.2,29.89,SE,135,1.0,5.0,94,0.00,,,0.00,16.0,meteohub,2013-06-30 23:47:00,
2013-06-30 19:52:00,73.0,70.9,29.89,SE,142,0.0,5.0,93,0.00,,,0.00,9.0,meteohub,2013-06-30 23:52:00,
2013-06-30 19:57:00,73.0,71.2,29.89,SE,142,2.0,5.0,94,0.00,,,0.00,0.0,meteohub,2013-06-30 23:57:00,
2013-06-30 20:02:00,73.0,71.2,29.89,SE,142,0.0,5.0,94,0.00,,,0.00,9.0,meteohub,2013-07-01 00:02:00,
2013-06-30 20:07:00,72.9,71.1,29.89,SE,144,1.0,5.0,94,0.01,,,0.01,7.0,meteohub,2013-07-01 00:07:00,
2013-06-30 20:12:00,72.7,70.9,29.89,SSE,150,1.0,5.0,94,0.01,,,0.01,0.0,meteohub,2013-07-01 00:12:00,
2013-06-30 20:17:00,72.5,70.7,29.89,SSE,150,0.0,4.0,94,0.02,,,0.02,0.0,meteohub,2013-07-01 00:17:00,
2013-06-30 20:22:00,72.3,70.9,29.89,SSE,150,0.0,4.0,95,0.02,,,0.02,0.0,meteohub,2013-07-01 00:22:00,
2013-06-30 20:27:00,72.3,70.9,29.89,SSE,150,0.0,4.0,95,0.02,,,0.02,0.0,meteohub,2013-07-01 00:27:00,
2013-06-30 20:32:00,72.1,70.7,29.89,SSE,150,0.0,2.0,95,0.02,,,0.02,0.0,meteohub,2013-07-01 00:32:00,
2013-06-30 20:37:00,72.1,70.7,29.89,SSE,150,0.0,2.0,95,0.02,,,0.02,0.0,meteohub,2013-07-01 00:37:00,
2013-06-30 20:42:00,72.1,70.7,29.89,SSE,150,1.0,2.0,95,0.02,,,0.02,0.0,meteohub,2013-07-01 00:42:00,
2013-06-30 20:47:00,72.1,70.7,29.89,SSE,150,0.0,2.0,95,0.02,,,0.02,0.0,meteohub,2013-07-01 00:47:00,
2013-06-30 20:52:00,72.1,70.7,29.89,SSE,150,1.0,2.0,95,0.02,,,0.02,0.0,meteohub,2013-07-01 00:52:00,
2013-06-30 20:57:00,72.1,70.9,29.89,SSE,150,0.0,2.0,96,0.02,,,0.02,0.0,meteohub,2013-07-01 00:57:00,
2013-06-30 21:02:00,72.1,70.9,29.89,SSE,150,0.0,1.0,96,0.01,,,0.02,0.0,meteohub,2013-07-01 01:02:00,
2013-06-30 21:07:00,72.0,70.7,29.89,SSE,150,2.0,2.0,96,0.01,,,0.02,0.0,meteohub,2013-07-01 01:07:00,
2013-06-30 21:12:00,72.1,70.9,29.89,SSE,161,5.0,5.0,96,0.01,,,0.02,0.0,meteohub,2013-07-01 01:12:00,
2013-06-30 21:17:00,72.0,70.7,29.89,SSE,161,4.0,5.0,96,0.01,,,0.03,0.0,meteohub,2013-07-01 01:17:00,
2013-06-30 21:22:00,71.8,70.5,29.89,SSE,165,0.0,5.0,96,0.01,,,0.03,0.0,meteohub,2013-07-01 01:22:00,
2013-06-30 21:27:00,71.8,70.5,29.90,SSE,165,0.0,5.0,96,0.02,,,0.04,0.0,meteohub,2013-07-01 01:27:00,
2013-06-30 21:32:00,71.4,70.2,29.90,SSE,161,0.0,5.0,96,0.02,,,0.04,0.0,meteohub,2013-07-01 01:32:00,
2013-06-30 21:37:00,71.6,70.3,29.90,South,181,1.0,5.0,96,0.03,,,0.05,0.0,meteohub,2013-07-01 01:37:00,
2013-06-30 21:42:00,71.8,70.5,29.90,SSE,155,0.0,6.0,96,0.04,,,0.06,0.0,meteohub,2013-07-01 01:42:00,
2013-06-30 21:47:00,71.8,70.5,29.91,SSE,155,0.0,6.0,96,0.08,,,0.10,0.0,meteohub,2013-07-01 01:47:00,
2013-06-30 21:52:00,71.8,70.5,29.91,SSE,155,1.0,6.0,96,0.09,,,0.11,0.0,meteohub,2013-07-01 01:52:00,
2013-06-30 21:57:00,71.8,70.9,29.91,South,186,0.0,6.0,97,0.09,,,0.11,0.0,meteohub,2013-07-01 01:57:00,
2013-06-30 22:02:00,71.8,70.9,29.91,South,189,2.0,6.0,97,0.09,,,0.11,0.0,meteohub,2013-07-01 02:02:00,
2013-06-30 22:07:00,71.8,70.9,29.91,South,180,1.0,6.0,97,0.09,,,0.11,0.0,meteohub,2013-07-01 02:07:00,
2013-06-30 22:12:00,71.8,70.9,29.91,SSW,192,2.0,6.0,97,0.08,,,0.11,0.0,meteohub,2013-07-01 02:12:00,
2013-06-30 22:17:00,72.0,71.1,29.92,South,187,0.0,6.0,97,0.08,,,0.11,0.0,meteohub,2013-07-01 02:17:00,
2013-06-30 22:22:00,72.0,71.1,29.92,South,184,0.0,6.0,97,0.07,,,0.11,0.0,meteohub,2013-07-01 02:22:00,
2013-06-30 22:27:00,72.0,71.1,29.91,South,180,0.0,6.0,97,0.07,,,0.11,0.0,meteohub,2013-07-01 02:27:00,
2013-06-30 22:32:00,72.0,71.1,29.92,SSE,153,2.0,6.0,97,0.07,,,0.11,0.0,meteohub,2013-07-01 02:32:00,
2013-06-30 22:37:00,72.0,71.1,29.91,SSW,195,1.0,6.0,97,0.06,,,0.11,0.0,meteohub,2013-07-01 02:37:00,
2013-06-30 22:42:00,72.0,71.1,29.92,South,186,1.0,6.0,97,0.04,,,0.11,0.0,meteohub,2013-07-01 02:42:00,
2013-06-30 22:47:00,72.0,71.1,29.92,South,182,1.0,6.0,97,0.00,,,0.11,0.0,meteohub,2013-07-01 02:47:00,
2013-06-30 22:52:00,72.0,71.1,29.92,South,178,4.0,5.0,97,0.00,,,0.11,0.0,meteohub,2013-07-01 02:52:00,
2013-06-30 22:57:00,72.0,71.1,29.92,SW,229,2.0,5.0,97,0.00,,,0.11,0.0,meteohub,2013-07-01 02:57:00,
2013-06-30 23:02:00,72.1,71.2,29.92,South,191,5.0,5.0,97,0.00,,,0.11,0.0,meteohub,2013-07-01 03:02:00,
2013-06-30 23:08:00,72.0,71.1,29.92,South,172,2.0,8.0,97,0.00,,,0.11,0.0,meteohub,2013-07-01 03:08:00,
2013-06-30 23:13:00,72.0,71.1,29.92,South,172,2.0,8.0,97,0.00,,,0.11,0.0,meteohub,2013-07-01 03:13:00,
2013-06-30 23:18:00,72.1,71.2,29.92,South,181,0.0,8.0,97,0.00,,,0.11,0.0,meteohub,2013-07-01 03:18:00,
2013-06-30 23:23:00,72.0,71.1,29.92,South,182,4.0,6.0,97,0.00,,,0.11,0.0,meteohub,2013-07-01 03:23:00,
2013-06-30 23:28:00,72.0,71.1,29.93,South,184,0.0,6.0,97,0.00,,,0.11,0.0,meteohub,2013-07-01 03:28:00,
2013-06-30 23:33:00,72.0,71.1,29.93,South,186,3.0,6.0,97,0.00,,,0.11,0.0,meteohub,2013-07-01 03:33:00,
2013-06-30 23:38:00,72.1,71.2,29.92,South,186,0.0,6.0,97,0.00,,,0.11,0.0,meteohub,2013-07-01 03:38:00,
2013-06-30 23:43:00,72.1,71.2,29.93,South,186,0.0,5.0,97,0.00,,,0.11,0.0,meteohub,2013-07-01 03:43:00,
2013-06-30 23:48:00,72.1,71.2,29.93,South,186,0.0,5.0,97,0.00,,,0.11,0.0,meteohub,2013-07-01 03:48:00,
2013-06-30 23:53:00,72.1,71.2,29.93,SE,143,1.0,1.0,97,0.00,,,0.11,0.0,meteohub,2013-07-01 03:53:00,
2013-06-30 23:58:00,72.1,71.2,29.93,SSE,159,0.0,5.0,97,0.00,,,0.11,0.0,meteohub,2013-07-01 03:58:00,